Hauptseite
METAR-TAF:

METAR-TAF

Flughäfen :

Kansas City International Airport

Kansas City, Missouri, Vereinigte Staaten

Breite: 39-17-50N, Länge: 094-43-50W, Höhe: 312 m

Beobachtung

Neuester Wetterbericht von vor 50 Minuten, um 13:53 UTC
Wind 3 kt aus West/Nordwest
Temperatur 9°C
Luftfeuchtigkeit 76%
Luftdruck 1030 hPa
Sichtweite: 16.1 km
Himmel klar

METAR: KMCI 171353Z 29003KT 10SM CLR 09/05 A3042 RMK AO2 SLP303 T00940050

Zeit: 09:43 (14:43 UTC)

Prognose

Neuester Wetterbericht von vor 3 Stunden und 23 Minuten, um 11:20 UTC
Gültige Prognose vom 17 um 12 UTC bis 18 um 12 UTC
Wind 8 kt aus Nord/Nordost
Sichtweite: 10 km
Aufgelockert bewölkt in der Höhe von 25000 ft
Ab 18 um 0000 UTC
Wind 6 kt aus unterschiedlichen Richtungen
Sichtweite: 10 km
Aufgelockert bewölkt in der Höhe von 25000 ft

TAF: KMCI 171120Z 1712/1812 02008KT P6SM SCT250 FM180000 VRB06KT P6SM SCT250

Wetterbeobachtungen und Prognosen von mehr als 4000 Flughäfen (METAR und TAF Bericht).

Die verfügbaren Stationen werden durch gelbe und rote Markierungen auf der Karte dargestellt.

Führen Sie die Maus auf sie, um den Namen der Station zu sehen.

Darauf klicken, um die Beobachtung von Wetterbeobachtungen und Prognosen zu sehen.

Um die Karte zu ändern : klicken Sie auf den grünen Tasten mit einem schwarzen Kreuz Zum Vergrößern, auf den grünen Button mit einem Gedankenstrich zu verkleinern, oder auf die grünen Pfeile für benachbarte Karten.


METAR-TAF: